sensor_id;sensor_type;location;lat;lon;timestamp;P1;durP1;ratioP1;P2;durP2;ratioP2
41311;SDS011;27061;41.648;24.568;2024-03-06T00:01:17;6.00;;;4.05;;
41311;SDS011;27061;41.648;24.568;2024-03-06T00:03:44;5.28;;;4.10;;
41311;SDS011;27061;41.648;24.568;2024-03-06T00:06:11;8.30;;;4.57;;
41311;SDS011;27061;41.648;24.568;2024-03-06T00:08:39;7.78;;;4.28;;
41311;SDS011;27061;41.648;24.568;2024-03-06T00:11:06;8.82;;;4.13;;
41311;SDS011;27061;41.648;24.568;2024-03-06T00:13:34;4.85;;;4.25;;
41311;SDS011;27061;41.648;24.568;2024-03-06T00:16:02;12.55;;;6.75;;
41311;SDS011;27061;41.648;24.568;2024-03-06T00:18:29;10.40;;;4.18;;
41311;SDS011;27061;41.648;24.568;2024-03-06T00:20:57;5.22;;;4.35;;
41311;SDS011;27061;41.648;24.568;2024-03-06T00:23:24;4.28;;;3.88;;
41311;SDS011;27061;41.648;24.568;2024-03-06T00:25:51;9.00;;;4.30;;
41311;SDS011;27061;41.648;24.568;2024-03-06T00:28:19;11.30;;;5.07;;
41311;SDS011;27061;41.648;24.568;2024-03-06T00:30:46;4.45;;;3.95;;
41311;SDS011;27061;41.648;24.568;2024-03-06T00:33:13;4.82;;;4.25;;
41311;SDS011;27061;41.648;24.568;2024-03-06T00:35:41;8.68;;;3.70;;
41311;SDS011;27061;41.648;24.568;2024-03-06T00:38:11;7.63;;;3.70;;
41311;SDS011;27061;41.648;24.568;2024-03-06T00:40:40;4.45;;;3.75;;
41311;SDS011;27061;41.648;24.568;2024-03-06T00:43:07;8.32;;;4.00;;
41311;SDS011;27061;41.648;24.568;2024-03-06T00:45:35;5.03;;;4.18;;
41311;SDS011;27061;41.648;24.568;2024-03-06T00:48:02;10.02;;;4.45;;
41311;SDS011;27061;41.648;24.568;2024-03-06T00:50:30;15.45;;;4.15;;
41311;SDS011;27061;41.648;24.568;2024-03-06T00:52:57;5.97;;;4.05;;
41311;SDS011;27061;41.648;24.568;2024-03-06T00:55:25;6.97;;;3.30;;
41311;SDS011;27061;41.648;24.568;2024-03-06T00:57:52;4.32;;;3.55;;
41311;SDS011;27061;41.648;24.568;2024-03-06T01:00:19;4.57;;;3.67;;
41311;SDS011;27061;41.648;24.568;2024-03-06T01:02:48;4.93;;;4.07;;
41311;SDS011;27061;41.648;24.568;2024-03-06T01:05:16;4.32;;;3.88;;
41311;SDS011;27061;41.648;24.568;2024-03-06T01:07:44;6.60;;;4.40;;
41311;SDS011;27061;41.648;24.568;2024-03-06T01:10:11;3.22;;;3.03;;
41311;SDS011;27061;41.648;24.568;2024-03-06T01:12:39;11.88;;;3.40;;
41311;SDS011;27061;41.648;24.568;2024-03-06T01:15:06;5.85;;;3.63;;
41311;SDS011;27061;41.648;24.568;2024-03-06T01:17:35;9.20;;;3.78;;
41311;SDS011;27061;41.648;24.568;2024-03-06T01:20:02;8.52;;;3.50;;
41311;SDS011;27061;41.648;24.568;2024-03-06T01:22:33;4.95;;;3.65;;
41311;SDS011;27061;41.648;24.568;2024-03-06T01:25:01;4.75;;;3.47;;
41311;SDS011;27061;41.648;24.568;2024-03-06T01:27:29;3.90;;;3.53;;
41311;SDS011;27061;41.648;24.568;2024-03-06T01:29:56;5.30;;;3.42;;
41311;SDS011;27061;41.648;24.568;2024-03-06T01:32:24;6.15;;;3.92;;
41311;SDS011;27061;41.648;24.568;2024-03-06T01:34:51;6.22;;;3.55;;
41311;SDS011;27061;41.648;24.568;2024-03-06T01:37:18;6.60;;;4.18;;
41311;SDS011;27061;41.648;24.568;2024-03-06T01:39:46;6.97;;;3.72;;
41311;SDS011;27061;41.648;24.568;2024-03-06T01:42:13;8.10;;;4.20;;
41311;SDS011;27061;41.648;24.568;2024-03-06T01:44:44;4.32;;;3.85;;
41311;SDS011;27061;41.648;24.568;2024-03-06T01:47:11;7.05;;;5.07;;
41311;SDS011;27061;41.648;24.568;2024-03-06T01:49:38;5.32;;;4.03;;
41311;SDS011;27061;41.648;24.568;2024-03-06T01:52:11;58.53;;;4.45;;
41311;SDS011;27061;41.648;24.568;2024-03-06T01:54:41;6.30;;;4.10;;
41311;SDS011;27061;41.648;24.568;2024-03-06T01:57:09;16.50;;;4.18;;
41311;SDS011;27061;41.648;24.568;2024-03-06T01:59:40;55.65;;;5.03;;
41311;SDS011;27061;41.648;24.568;2024-03-06T02:02:08;46.45;;;4.55;;
41311;SDS011;27061;41.648;24.568;2024-03-06T02:04:38;77.32;;;5.47;;
41311;SDS011;27061;41.648;24.568;2024-03-06T02:07:08;508.80;;;20.45;;
41311;SDS011;27061;41.648;24.568;2024-03-06T02:09:38;162.25;;;7.40;;
41311;SDS011;27061;41.648;24.568;2024-03-06T02:12:06;49.53;;;5.40;;
41311;SDS011;27061;41.648;24.568;2024-03-06T02:14:35;97.78;;;6.55;;
41311;SDS011;27061;41.648;24.568;2024-03-06T02:17:03;38.25;;;5.47;;
41311;SDS011;27061;41.648;24.568;2024-03-06T02:19:40;29.02;;;4.90;;
41311;SDS011;27061;41.648;24.568;2024-03-06T02:22:09;7.05;;;4.70;;
41311;SDS011;27061;41.648;24.568;2024-03-06T02:24:37;14.80;;;4.35;;
41311;SDS011;27061;41.648;24.568;2024-03-06T02:27:09;4.03;;;3.63;;
41311;SDS011;27061;41.648;24.568;2024-03-06T02:29:37;6.28;;;3.92;;
41311;SDS011;27061;41.648;24.568;2024-03-06T02:32:05;3.60;;;3.30;;
41311;SDS011;27061;41.648;24.568;2024-03-06T02:34:32;7.72;;;3.67;;
41311;SDS011;27061;41.648;24.568;2024-03-06T02:37:00;5.53;;;3.90;;
41311;SDS011;27061;41.648;24.568;2024-03-06T02:39:27;7.00;;;4.20;;
41311;SDS011;27061;41.648;24.568;2024-03-06T02:41:57;13.73;;;4.60;;
41311;SDS011;27061;41.648;24.568;2024-03-06T02:44:24;7.32;;;4.63;;
41311;SDS011;27061;41.648;24.568;2024-03-06T02:46:52;20.17;;;3.85;;
41311;SDS011;27061;41.648;24.568;2024-03-06T02:49:20;5.65;;;3.03;;
41311;SDS011;27061;41.648;24.568;2024-03-06T02:51:48;4.43;;;3.83;;
41311;SDS011;27061;41.648;24.568;2024-03-06T02:54:15;12.77;;;5.43;;
41311;SDS011;27061;41.648;24.568;2024-03-06T02:56:42;8.52;;;5.63;;
41311;SDS011;27061;41.648;24.568;2024-03-06T02:59:10;7.75;;;5.38;;
41311;SDS011;27061;41.648;24.568;2024-03-06T03:01:37;9.35;;;5.75;;
41311;SDS011;27061;41.648;24.568;2024-03-06T03:04:05;8.32;;;6.13;;
41311;SDS011;27061;41.648;24.568;2024-03-06T03:06:34;11.45;;;6.50;;
41311;SDS011;27061;41.648;24.568;2024-03-06T03:09:01;7.30;;;5.20;;
41311;SDS011;27061;41.648;24.568;2024-03-06T03:11:30;9.77;;;5.40;;
41311;SDS011;27061;41.648;24.568;2024-03-06T03:13:58;13.90;;;4.90;;
41311;SDS011;27061;41.648;24.568;2024-03-06T03:16:26;6.32;;;5.00;;
41311;SDS011;27061;41.648;24.568;2024-03-06T03:18:56;9.05;;;5.80;;
41311;SDS011;27061;41.648;24.568;2024-03-06T03:21:23;13.48;;;6.03;;
41311;SDS011;27061;41.648;24.568;2024-03-06T03:23:50;8.13;;;6.20;;
41311;SDS011;27061;41.648;24.568;2024-03-06T03:26:18;13.32;;;4.85;;
41311;SDS011;27061;41.648;24.568;2024-03-06T03:28:45;24.95;;;4.97;;
41311;SDS011;27061;41.648;24.568;2024-03-06T03:31:13;9.75;;;4.55;;
41311;SDS011;27061;41.648;24.568;2024-03-06T03:33:41;7.43;;;5.03;;
41311;SDS011;27061;41.648;24.568;2024-03-06T03:36:09;9.15;;;5.05;;
41311;SDS011;27061;41.648;24.568;2024-03-06T03:38:39;5.88;;;4.95;;
41311;SDS011;27061;41.648;24.568;2024-03-06T03:41:08;11.65;;;5.90;;
41311;SDS011;27061;41.648;24.568;2024-03-06T03:43:37;9.25;;;7.15;;
41311;SDS011;27061;41.648;24.568;2024-03-06T03:46:06;17.45;;;6.35;;
41311;SDS011;27061;41.648;24.568;2024-03-06T03:48:33;10.95;;;6.05;;
41311;SDS011;27061;41.648;24.568;2024-03-06T03:51:04;11.38;;;6.07;;
41311;SDS011;27061;41.648;24.568;2024-03-06T03:53:34;18.75;;;6.82;;
41311;SDS011;27061;41.648;24.568;2024-03-06T03:56:01;10.63;;;7.07;;
41311;SDS011;27061;41.648;24.568;2024-03-06T03:58:30;17.98;;;7.75;;
41311;SDS011;27061;41.648;24.568;2024-03-06T04:00:57;14.88;;;7.50;;
41311;SDS011;27061;41.648;24.568;2024-03-06T04:03:25;11.27;;;7.57;;
41311;SDS011;27061;41.648;24.568;2024-03-06T04:05:53;18.08;;;7.40;;
41311;SDS011;27061;41.648;24.568;2024-03-06T04:08:20;11.82;;;8.30;;
41311;SDS011;27061;41.648;24.568;2024-03-06T04:10:47;16.88;;;8.25;;
41311;SDS011;27061;41.648;24.568;2024-03-06T04:13:15;14.63;;;7.07;;
41311;SDS011;27061;41.648;24.568;2024-03-06T04:15:43;12.00;;;7.60;;
41311;SDS011;27061;41.648;24.568;2024-03-06T04:18:10;12.27;;;7.15;;
41311;SDS011;27061;41.648;24.568;2024-03-06T04:20:38;13.13;;;7.55;;
41311;SDS011;27061;41.648;24.568;2024-03-06T04:23:05;10.85;;;7.05;;
41311;SDS011;27061;41.648;24.568;2024-03-06T04:25:32;9.40;;;6.40;;
41311;SDS011;27061;41.648;24.568;2024-03-06T04:28:00;19.17;;;6.88;;
41311;SDS011;27061;41.648;24.568;2024-03-06T04:30:29;12.13;;;6.78;;
41311;SDS011;27061;41.648;24.568;2024-03-06T04:32:56;13.27;;;6.65;;
41311;SDS011;27061;41.648;24.568;2024-03-06T04:35:24;20.52;;;7.75;;
41311;SDS011;27061;41.648;24.568;2024-03-06T04:37:51;15.45;;;6.65;;
41311;SDS011;27061;41.648;24.568;2024-03-06T04:40:19;14.52;;;6.53;;
41311;SDS011;27061;41.648;24.568;2024-03-06T04:42:49;8.60;;;5.32;;
41311;SDS011;27061;41.648;24.568;2024-03-06T04:45:16;8.25;;;6.05;;
41311;SDS011;27061;41.648;24.568;2024-03-06T04:47:44;13.45;;;6.15;;
41311;SDS011;27061;41.648;24.568;2024-03-06T04:50:12;17.42;;;6.28;;
41311;SDS011;27061;41.648;24.568;2024-03-06T04:52:41;12.85;;;6.20;;
41311;SDS011;27061;41.648;24.568;2024-03-06T04:55:09;11.25;;;6.60;;
41311;SDS011;27061;41.648;24.568;2024-03-06T04:57:39;8.32;;;5.72;;
41311;SDS011;27061;41.648;24.568;2024-03-06T05:00:10;10.07;;;6.38;;
41311;SDS011;27061;41.648;24.568;2024-03-06T05:02:38;17.20;;;6.38;;
41311;SDS011;27061;41.648;24.568;2024-03-06T05:05:24;14.45;;;6.38;;
41311;SDS011;27061;41.648;24.568;2024-03-06T05:08:09;22.52;;;6.30;;
41311;SDS011;27061;41.648;24.568;2024-03-06T05:10:55;6.90;;;5.65;;
41311;SDS011;27061;41.648;24.568;2024-03-06T05:16:24;11.38;;;6.40;;
41311;SDS011;27061;41.648;24.568;2024-03-06T05:19:10;12.52;;;8.57;;
41311;SDS011;27061;41.648;24.568;2024-03-06T05:21:55;11.70;;;7.78;;
41311;SDS011;27061;41.648;24.568;2024-03-06T05:24:40;11.73;;;4.32;;
41311;SDS011;27061;41.648;24.568;2024-03-06T05:27:29;11.90;;;7.03;;
41311;SDS011;27061;41.648;24.568;2024-03-06T05:30:14;13.18;;;7.90;;
41311;SDS011;27061;41.648;24.568;2024-03-06T05:32:59;14.98;;;7.60;;
41311;SDS011;27061;41.648;24.568;2024-03-06T05:35:44;18.13;;;7.30;;
41311;SDS011;27061;41.648;24.568;2024-03-06T05:41:13;22.73;;;6.53;;
41311;SDS011;27061;41.648;24.568;2024-03-06T05:43:58;17.60;;;6.18;;
41311;SDS011;27061;41.648;24.568;2024-03-06T05:46:43;10.65;;;6.55;;
41311;SDS011;27061;41.648;24.568;2024-03-06T05:49:28;8.35;;;5.97;;
41311;SDS011;27061;41.648;24.568;2024-03-06T05:52:13;13.60;;;6.15;;
41311;SDS011;27061;41.648;24.568;2024-03-06T05:55:01;23.17;;;7.15;;
41311;SDS011;27061;41.648;24.568;2024-03-06T05:57:46;18.92;;;7.13;;
41311;SDS011;27061;41.648;24.568;2024-03-06T06:00:31;19.90;;;6.30;;
41311;SDS011;27061;41.648;24.568;2024-03-06T06:03:00;20.15;;;7.93;;
41311;SDS011;27061;41.648;24.568;2024-03-06T06:05:28;14.18;;;7.88;;
41311;SDS011;27061;41.648;24.568;2024-03-06T06:07:55;53.85;;;9.02;;
41311;SDS011;27061;41.648;24.568;2024-03-06T06:10:22;18.67;;;7.00;;
41311;SDS011;27061;41.648;24.568;2024-03-06T06:12:50;18.23;;;8.27;;
41311;SDS011;27061;41.648;24.568;2024-03-06T06:15:17;26.23;;;8.25;;
41311;SDS011;27061;41.648;24.568;2024-03-06T06:17:45;20.98;;;7.80;;
41311;SDS011;27061;41.648;24.568;2024-03-06T06:20:13;15.85;;;6.43;;
41311;SDS011;27061;41.648;24.568;2024-03-06T06:22:43;37.00;;;7.00;;
41311;SDS011;27061;41.648;24.568;2024-03-06T06:25:11;12.80;;;6.10;;
41311;SDS011;27061;41.648;24.568;2024-03-06T06:27:39;26.25;;;9.65;;
41311;SDS011;27061;41.648;24.568;2024-03-06T06:30:07;37.55;;;10.27;;
41311;SDS011;27061;41.648;24.568;2024-03-06T06:32:42;12.80;;;6.72;;
41311;SDS011;27061;41.648;24.568;2024-03-06T06:35:10;28.30;;;8.52;;
41311;SDS011;27061;41.648;24.568;2024-03-06T06:37:40;9.90;;;6.43;;
41311;SDS011;27061;41.648;24.568;2024-03-06T06:40:08;21.48;;;14.55;;
41311;SDS011;27061;41.648;24.568;2024-03-06T06:42:36;37.92;;;13.07;;
41311;SDS011;27061;41.648;24.568;2024-03-06T06:45:04;22.48;;;8.75;;
41311;SDS011;27061;41.648;24.568;2024-03-06T06:47:33;8.27;;;7.05;;
41311;SDS011;27061;41.648;24.568;2024-03-06T06:50:01;11.30;;;8.05;;
41311;SDS011;27061;41.648;24.568;2024-03-06T06:52:33;7.00;;;5.97;;
41311;SDS011;27061;41.648;24.568;2024-03-06T06:55:01;18.00;;;6.03;;
41311;SDS011;27061;41.648;24.568;2024-03-06T06:57:29;11.63;;;6.18;;
41311;SDS011;27061;41.648;24.568;2024-03-06T06:59:57;20.52;;;6.03;;
41311;SDS011;27061;41.648;24.568;2024-03-06T07:02:24;13.60;;;6.57;;
41311;SDS011;27061;41.648;24.568;2024-03-06T07:04:52;12.98;;;8.43;;
41311;SDS011;27061;41.648;24.568;2024-03-06T07:07:19;10.48;;;5.90;;
41311;SDS011;27061;41.648;24.568;2024-03-06T07:09:48;14.18;;;7.05;;
41311;SDS011;27061;41.648;24.568;2024-03-06T07:12:16;8.30;;;6.70;;
41311;SDS011;27061;41.648;24.568;2024-03-06T07:14:43;9.98;;;6.90;;
41311;SDS011;27061;41.648;24.568;2024-03-06T07:17:11;14.98;;;7.18;;
41311;SDS011;27061;41.648;24.568;2024-03-06T07:19:38;10.23;;;6.88;;
41311;SDS011;27061;41.648;24.568;2024-03-06T07:22:06;12.10;;;6.78;;
41311;SDS011;27061;41.648;24.568;2024-03-06T07:24:34;9.18;;;6.75;;
41311;SDS011;27061;41.648;24.568;2024-03-06T07:27:05;10.90;;;7.63;;
41311;SDS011;27061;41.648;24.568;2024-03-06T07:29:32;10.57;;;6.88;;
41311;SDS011;27061;41.648;24.568;2024-03-06T07:32:00;13.82;;;7.00;;
41311;SDS011;27061;41.648;24.568;2024-03-06T07:34:28;8.75;;;6.05;;
41311;SDS011;27061;41.648;24.568;2024-03-06T07:36:56;12.05;;;6.15;;
41311;SDS011;27061;41.648;24.568;2024-03-06T07:39:29;7.10;;;6.00;;
41311;SDS011;27061;41.648;24.568;2024-03-06T07:41:58;12.00;;;7.45;;
41311;SDS011;27061;41.648;24.568;2024-03-06T07:44:25;11.80;;;6.88;;
41311;SDS011;27061;41.648;24.568;2024-03-06T07:46:53;13.32;;;7.10;;
41311;SDS011;27061;41.648;24.568;2024-03-06T07:49:21;7.07;;;5.43;;
41311;SDS011;27061;41.648;24.568;2024-03-06T07:51:50;9.88;;;6.38;;
41311;SDS011;27061;41.648;24.568;2024-03-06T07:54:20;7.60;;;5.85;;
41311;SDS011;27061;41.648;24.568;2024-03-06T07:56:48;11.75;;;6.72;;
41311;SDS011;27061;41.648;24.568;2024-03-06T07:59:15;11.95;;;6.72;;
41311;SDS011;27061;41.648;24.568;2024-03-06T08:01:45;15.52;;;6.30;;
41311;SDS011;27061;41.648;24.568;2024-03-06T08:04:12;12.98;;;6.60;;
41311;SDS011;27061;41.648;24.568;2024-03-06T08:06:40;8.70;;;6.30;;
41311;SDS011;27061;41.648;24.568;2024-03-06T08:09:08;8.95;;;6.78;;
41311;SDS011;27061;41.648;24.568;2024-03-06T08:11:36;6.75;;;5.78;;
41311;SDS011;27061;41.648;24.568;2024-03-06T08:14:03;8.40;;;5.63;;
41311;SDS011;27061;41.648;24.568;2024-03-06T08:16:33;6.03;;;5.43;;
41311;SDS011;27061;41.648;24.568;2024-03-06T08:19:03;9.60;;;5.80;;
41311;SDS011;27061;41.648;24.568;2024-03-06T08:21:30;12.20;;;6.90;;
41311;SDS011;27061;41.648;24.568;2024-03-06T08:23:58;9.68;;;7.13;;
41311;SDS011;27061;41.648;24.568;2024-03-06T08:26:25;10.27;;;6.43;;
41311;SDS011;27061;41.648;24.568;2024-03-06T08:28:53;12.02;;;7.45;;
41311;SDS011;27061;41.648;24.568;2024-03-06T08:31:23;13.38;;;6.80;;
41311;SDS011;27061;41.648;24.568;2024-03-06T08:33:52;12.05;;;7.55;;
41311;SDS011;27061;41.648;24.568;2024-03-06T08:36:19;7.95;;;6.80;;
41311;SDS011;27061;41.648;24.568;2024-03-06T08:38:48;7.40;;;6.20;;
41311;SDS011;27061;41.648;24.568;2024-03-06T08:41:15;10.63;;;6.82;;
41311;SDS011;27061;41.648;24.568;2024-03-06T08:43:42;7.53;;;6.13;;
41311;SDS011;27061;41.648;24.568;2024-03-06T08:46:13;9.20;;;6.65;;
41311;SDS011;27061;41.648;24.568;2024-03-06T08:48:40;10.57;;;6.03;;
41311;SDS011;27061;41.648;24.568;2024-03-06T08:51:08;14.48;;;7.13;;
41311;SDS011;27061;41.648;24.568;2024-03-06T08:53:37;9.48;;;6.68;;
41311;SDS011;27061;41.648;24.568;2024-03-06T08:56:05;8.75;;;7.00;;
41311;SDS011;27061;41.648;24.568;2024-03-06T08:58:33;9.40;;;6.47;;
41311;SDS011;27061;41.648;24.568;2024-03-06T09:01:01;10.55;;;6.63;;
41311;SDS011;27061;41.648;24.568;2024-03-06T09:03:28;10.50;;;6.20;;
41311;SDS011;27061;41.648;24.568;2024-03-06T09:05:56;10.52;;;5.90;;
41311;SDS011;27061;41.648;24.568;2024-03-06T09:08:23;31.25;;;7.90;;
41311;SDS011;27061;41.648;24.568;2024-03-06T09:10:50;8.40;;;6.22;;
41311;SDS011;27061;41.648;24.568;2024-03-06T09:13:17;11.35;;;5.88;;
41311;SDS011;27061;41.648;24.568;2024-03-06T09:15:48;9.55;;;6.22;;
41311;SDS011;27061;41.648;24.568;2024-03-06T09:18:15;21.42;;;7.90;;
41311;SDS011;27061;41.648;24.568;2024-03-06T09:20:43;8.07;;;6.55;;
41311;SDS011;27061;41.648;24.568;2024-03-06T09:23:11;10.55;;;6.60;;
41311;SDS011;27061;41.648;24.568;2024-03-06T09:25:38;9.18;;;6.03;;
41311;SDS011;27061;41.648;24.568;2024-03-06T09:28:07;13.40;;;6.35;;
41311;SDS011;27061;41.648;24.568;2024-03-06T09:30:35;9.93;;;7.30;;
41311;SDS011;27061;41.648;24.568;2024-03-06T09:33:02;11.60;;;6.90;;
41311;SDS011;27061;41.648;24.568;2024-03-06T09:35:30;16.05;;;6.53;;
41311;SDS011;27061;41.648;24.568;2024-03-06T09:37:59;7.28;;;5.15;;
41311;SDS011;27061;41.648;24.568;2024-03-06T09:40:28;11.45;;;6.75;;
41311;SDS011;27061;41.648;24.568;2024-03-06T09:42:56;10.63;;;6.85;;
41311;SDS011;27061;41.648;24.568;2024-03-06T09:45:23;11.88;;;6.63;;
41311;SDS011;27061;41.648;24.568;2024-03-06T09:47:51;20.13;;;6.95;;
41311;SDS011;27061;41.648;24.568;2024-03-06T09:50:22;16.38;;;6.57;;
41311;SDS011;27061;41.648;24.568;2024-03-06T09:52:51;8.02;;;6.07;;
41311;SDS011;27061;41.648;24.568;2024-03-06T09:55:22;8.43;;;6.13;;
41311;SDS011;27061;41.648;24.568;2024-03-06T09:57:50;10.98;;;5.50;;
41311;SDS011;27061;41.648;24.568;2024-03-06T10:00:18;10.45;;;5.65;;
41311;SDS011;27061;41.648;24.568;2024-03-06T10:02:59;13.82;;;5.95;;
41311;SDS011;27061;41.648;24.568;2024-03-06T10:05:28;6.18;;;4.63;;
41311;SDS011;27061;41.648;24.568;2024-03-06T10:07:57;7.38;;;4.55;;
41311;SDS011;27061;41.648;24.568;2024-03-06T10:10:26;13.98;;;4.65;;
41311;SDS011;27061;41.648;24.568;2024-03-06T10:12:54;4.82;;;3.95;;
41311;SDS011;27061;41.648;24.568;2024-03-06T10:15:24;7.53;;;3.85;;
41311;SDS011;27061;41.648;24.568;2024-03-06T10:18:00;6.07;;;3.75;;
41311;SDS011;27061;41.648;24.568;2024-03-06T10:20:38;8.48;;;4.88;;
41311;SDS011;27061;41.648;24.568;2024-03-06T10:23:06;10.15;;;4.30;;
41311;SDS011;27061;41.648;24.568;2024-03-06T10:25:35;8.65;;;4.65;;
41311;SDS011;27061;41.648;24.568;2024-03-06T10:28:09;5.70;;;4.50;;
41311;SDS011;27061;41.648;24.568;2024-03-06T10:30:39;9.38;;;5.70;;
41311;SDS011;27061;41.648;24.568;2024-03-06T10:33:11;8.55;;;5.15;;
41311;SDS011;27061;41.648;24.568;2024-03-06T10:35:43;7.05;;;4.82;;
41311;SDS011;27061;41.648;24.568;2024-03-06T10:38:15;8.57;;;4.82;;
41311;SDS011;27061;41.648;24.568;2024-03-06T10:40:43;11.93;;;5.03;;
41311;SDS011;27061;41.648;24.568;2024-03-06T10:43:11;9.50;;;4.93;;
41311;SDS011;27061;41.648;24.568;2024-03-06T10:48:05;9.00;;;5.20;;
41311;SDS011;27061;41.648;24.568;2024-03-06T10:50:34;7.90;;;4.88;;
41311;SDS011;27061;41.648;24.568;2024-03-06T10:53:08;7.68;;;5.15;;
41311;SDS011;27061;41.648;24.568;2024-03-06T10:55:37;12.30;;;5.28;;
41311;SDS011;27061;41.648;24.568;2024-03-06T10:58:05;6.05;;;4.95;;
41311;SDS011;27061;41.648;24.568;2024-03-06T11:00:38;7.97;;;3.83;;
41311;SDS011;27061;41.648;24.568;2024-03-06T11:03:09;6.22;;;4.68;;
41311;SDS011;27061;41.648;24.568;2024-03-06T11:05:44;17.60;;;4.85;;
41311;SDS011;27061;41.648;24.568;2024-03-06T11:08:15;6.97;;;4.97;;
41311;SDS011;27061;41.648;24.568;2024-03-06T11:10:44;6.40;;;5.03;;
41311;SDS011;27061;41.648;24.568;2024-03-06T11:13:22;8.63;;;5.13;;
41311;SDS011;27061;41.648;24.568;2024-03-06T11:15:52;7.53;;;3.95;;
41311;SDS011;27061;41.648;24.568;2024-03-06T11:23:32;4.72;;;4.03;;
41311;SDS011;27061;41.648;24.568;2024-03-06T11:26:06;4.88;;;4.03;;
41311;SDS011;27061;41.648;24.568;2024-03-06T11:28:36;13.27;;;4.72;;
41311;SDS011;27061;41.648;24.568;2024-03-06T11:31:08;8.13;;;4.57;;
41311;SDS011;27061;41.648;24.568;2024-03-06T11:33:53;5.60;;;4.03;;
41311;SDS011;27061;41.648;24.568;2024-03-06T11:36:27;7.22;;;3.67;;
41311;SDS011;27061;41.648;24.568;2024-03-06T11:39:05;14.77;;;3.72;;
41311;SDS011;27061;41.648;24.568;2024-03-06T11:44:14;2.88;;;2.00;;
41311;SDS011;27061;41.648;24.568;2024-03-06T11:49:31;6.47;;;2.88;;
41311;SDS011;27061;41.648;24.568;2024-03-06T11:52:01;4.30;;;2.85;;
41311;SDS011;27061;41.648;24.568;2024-03-06T11:54:35;4.07;;;2.58;;
41311;SDS011;27061;41.648;24.568;2024-03-06T11:57:03;5.10;;;2.83;;
41311;SDS011;27061;41.648;24.568;2024-03-06T11:59:37;4.40;;;3.28;;
41311;SDS011;27061;41.648;24.568;2024-03-06T12:02:07;7.07;;;2.45;;
41311;SDS011;27061;41.648;24.568;2024-03-06T12:04:37;3.95;;;2.80;;
41311;SDS011;27061;41.648;24.568;2024-03-06T12:07:06;5.15;;;2.90;;
41311;SDS011;27061;41.648;24.568;2024-03-06T12:09:35;3.28;;;2.35;;
41311;SDS011;27061;41.648;24.568;2024-03-06T12:14:38;5.22;;;2.78;;
41311;SDS011;27061;41.648;24.568;2024-03-06T12:17:11;4.78;;;2.65;;
41311;SDS011;27061;41.648;24.568;2024-03-06T12:19:43;4.70;;;2.42;;
41311;SDS011;27061;41.648;24.568;2024-03-06T12:22:12;3.25;;;2.92;;
41311;SDS011;27061;41.648;24.568;2024-03-06T12:24:42;7.90;;;2.60;;
41311;SDS011;27061;41.648;24.568;2024-03-06T12:27:10;4.32;;;2.30;;
41311;SDS011;27061;41.648;24.568;2024-03-06T12:29:41;3.10;;;2.15;;
41311;SDS011;27061;41.648;24.568;2024-03-06T12:32:16;4.05;;;2.08;;
41311;SDS011;27061;41.648;24.568;2024-03-06T12:34:56;2.75;;;2.00;;
41311;SDS011;27061;41.648;24.568;2024-03-06T12:37:29;3.55;;;2.70;;
41311;SDS011;27061;41.648;24.568;2024-03-06T12:40:02;7.38;;;2.70;;
41311;SDS011;27061;41.648;24.568;2024-03-06T12:42:33;3.17;;;2.75;;
41311;SDS011;27061;41.648;24.568;2024-03-06T12:45:01;5.25;;;3.10;;
41311;SDS011;27061;41.648;24.568;2024-03-06T12:47:30;3.83;;;3.00;;
41311;SDS011;27061;41.648;24.568;2024-03-06T12:49:58;3.47;;;2.97;;
41311;SDS011;27061;41.648;24.568;2024-03-06T12:52:26;3.75;;;3.00;;
41311;SDS011;27061;41.648;24.568;2024-03-06T12:54:54;7.55;;;3.13;;
41311;SDS011;27061;41.648;24.568;2024-03-06T12:57:21;6.70;;;3.15;;
41311;SDS011;27061;41.648;24.568;2024-03-06T12:59:49;3.55;;;2.40;;
41311;SDS011;27061;41.648;24.568;2024-03-06T13:02:17;3.75;;;2.50;;
41311;SDS011;27061;41.648;24.568;2024-03-06T13:04:44;4.43;;;2.92;;
41311;SDS011;27061;41.648;24.568;2024-03-06T13:07:13;4.47;;;2.80;;
41311;SDS011;27061;41.648;24.568;2024-03-06T13:09:41;3.50;;;3.20;;
41311;SDS011;27061;41.648;24.568;2024-03-06T13:12:09;4.32;;;2.70;;
41311;SDS011;27061;41.648;24.568;2024-03-06T13:14:37;4.75;;;3.20;;
41311;SDS011;27061;41.648;24.568;2024-03-06T13:17:05;3.65;;;2.47;;
41311;SDS011;27061;41.648;24.568;2024-03-06T13:19:37;4.53;;;3.05;;
41311;SDS011;27061;41.648;24.568;2024-03-06T13:22:04;7.05;;;2.67;;
41311;SDS011;27061;41.648;24.568;2024-03-06T13:24:34;5.95;;;3.58;;
41311;SDS011;27061;41.648;24.568;2024-03-06T13:27:06;5.88;;;3.38;;
41311;SDS011;27061;41.648;24.568;2024-03-06T13:29:33;12.68;;;4.07;;
41311;SDS011;27061;41.648;24.568;2024-03-06T13:32:02;8.75;;;3.75;;
41311;SDS011;27061;41.648;24.568;2024-03-06T13:34:30;6.22;;;3.63;;
41311;SDS011;27061;41.648;24.568;2024-03-06T13:36:58;8.88;;;3.10;;
41311;SDS011;27061;41.648;24.568;2024-03-06T13:39:26;3.53;;;3.22;;
41311;SDS011;27061;41.648;24.568;2024-03-06T13:41:53;18.35;;;6.63;;
41311;SDS011;27061;41.648;24.568;2024-03-06T13:44:21;5.68;;;3.72;;
41311;SDS011;27061;41.648;24.568;2024-03-06T13:46:48;19.33;;;4.22;;
41311;SDS011;27061;41.648;24.568;2024-03-06T13:52:25;3.33;;;2.80;;
41311;SDS011;27061;41.648;24.568;2024-03-06T13:54:55;3.97;;;3.28;;
41311;SDS011;27061;41.648;24.568;2024-03-06T13:57:23;3.60;;;2.92;;
41311;SDS011;27061;41.648;24.568;2024-03-06T13:59:50;6.20;;;3.55;;
41311;SDS011;27061;41.648;24.568;2024-03-06T14:02:18;3.65;;;2.83;;
41311;SDS011;27061;41.648;24.568;2024-03-06T14:04:48;4.50;;;3.58;;
41311;SDS011;27061;41.648;24.568;2024-03-06T14:07:15;6.22;;;3.42;;
41311;SDS011;27061;41.648;24.568;2024-03-06T14:09:43;3.67;;;3.38;;
41311;SDS011;27061;41.648;24.568;2024-03-06T14:12:11;4.72;;;3.00;;
41311;SDS011;27061;41.648;24.568;2024-03-06T14:14:38;3.28;;;2.90;;
41311;SDS011;27061;41.648;24.568;2024-03-06T14:17:06;5.05;;;2.60;;
41311;SDS011;27061;41.648;24.568;2024-03-06T14:19:33;4.05;;;3.30;;
41311;SDS011;27061;41.648;24.568;2024-03-06T14:22:01;6.13;;;3.60;;
41311;SDS011;27061;41.648;24.568;2024-03-06T14:24:31;10.70;;;3.90;;
41311;SDS011;27061;41.648;24.568;2024-03-06T14:27:08;3.97;;;2.75;;
41311;SDS011;27061;41.648;24.568;2024-03-06T14:29:42;5.88;;;2.85;;
41311;SDS011;27061;41.648;24.568;2024-03-06T14:32:10;6.70;;;2.60;;
41311;SDS011;27061;41.648;24.568;2024-03-06T14:34:41;4.88;;;2.58;;
41311;SDS011;27061;41.648;24.568;2024-03-06T14:37:10;2.88;;;2.55;;
41311;SDS011;27061;41.648;24.568;2024-03-06T14:39:38;4.57;;;3.00;;
41311;SDS011;27061;41.648;24.568;2024-03-06T14:42:08;3.85;;;2.90;;
41311;SDS011;27061;41.648;24.568;2024-03-06T14:44:35;4.95;;;3.42;;
41311;SDS011;27061;41.648;24.568;2024-03-06T14:47:03;3.35;;;3.05;;
41311;SDS011;27061;41.648;24.568;2024-03-06T14:49:33;3.75;;;3.40;;
41311;SDS011;27061;41.648;24.568;2024-03-06T14:52:01;7.05;;;3.30;;
41311;SDS011;27061;41.648;24.568;2024-03-06T14:54:29;6.97;;;4.53;;
41311;SDS011;27061;41.648;24.568;2024-03-06T14:56:56;8.13;;;2.92;;
41311;SDS011;27061;41.648;24.568;2024-03-06T14:59:26;7.30;;;3.53;;
41311;SDS011;27061;41.648;24.568;2024-03-06T15:01:53;4.18;;;3.33;;
41311;SDS011;27061;41.648;24.568;2024-03-06T15:04:21;35.53;;;5.28;;
41311;SDS011;27061;41.648;24.568;2024-03-06T15:06:48;4.05;;;3.10;;